createdAt,value
2023-05-11T00:00:06.323Z,46.47
2023-05-11T00:02:34.518Z,56.53
2023-05-11T00:05:03.208Z,55.65
2023-05-11T00:07:31.524Z,53.85
2023-05-11T00:09:59.902Z,52.00
2023-05-11T00:12:28.118Z,57.20
2023-05-11T00:14:56.372Z,54.90
2023-05-11T00:17:24.619Z,50.63
2023-05-11T00:19:52.890Z,44.83
2023-05-11T00:22:21.268Z,47.78
2023-05-11T00:24:49.447Z,42.03
2023-05-11T00:27:17.820Z,49.17
2023-05-11T00:29:46.177Z,43.30
2023-05-11T00:32:14.698Z,43.35
2023-05-11T00:34:43.429Z,41.33
2023-05-11T00:37:11.820Z,42.03
2023-05-11T00:39:40.197Z,37.38
2023-05-11T00:42:08.719Z,40.58
2023-05-11T00:44:36.863Z,40.00
2023-05-11T00:47:05.361Z,37.78
2023-05-11T00:49:33.928Z,34.78
2023-05-11T00:52:02.471Z,32.50
2023-05-11T00:54:31.589Z,37.97
2023-05-11T00:57:00.994Z,47.05
2023-05-11T00:59:29.320Z,37.60
2023-05-11T01:01:58.534Z,33.53
2023-05-11T01:04:27.302Z,42.22
2023-05-11T01:07:17.758Z,31.05
2023-05-11T01:10:04.724Z,44.08
2023-05-11T01:13:08.888Z,41.65
2023-05-11T01:15:53.711Z,53.58
2023-05-11T01:18:30.677Z,38.20
2023-05-11T01:21:04.669Z,48.05
2023-05-11T01:24:00.348Z,49.95
2023-05-11T01:26:46.563Z,73.40
2023-05-11T01:29:53.438Z,53.97
2023-05-11T01:32:24.944Z,53.33
2023-05-11T01:35:03.282Z,48.53
2023-05-11T01:37:33.942Z,47.47
2023-05-11T01:40:19.286Z,52.05
2023-05-11T01:42:50.923Z,43.92
2023-05-11T01:45:21.206Z,41.50
2023-05-11T01:47:51.795Z,47.65
2023-05-11T01:50:21.738Z,44.03
2023-05-11T01:52:52.281Z,55.95
2023-05-11T01:55:24.044Z,50.45
2023-05-11T01:57:54.889Z,48.53
2023-05-11T02:00:24.404Z,51.97
2023-05-11T02:02:55.177Z,44.83
2023-05-11T02:05:25.096Z,45.92
2023-05-11T02:07:56.311Z,48.05
2023-05-11T02:10:26.974Z,49.35
2023-05-11T02:12:56.296Z,38.55
2023-05-11T02:15:27.333Z,40.42
2023-05-11T02:17:56.609Z,46.05
2023-05-11T02:20:25.796Z,45.13
2023-05-11T02:22:55.370Z,38.45
2023-05-11T02:25:24.065Z,43.17
2023-05-11T02:27:53.047Z,39.15
2023-05-11T02:30:21.584Z,36.90
2023-05-11T02:32:54.469Z,35.60
2023-05-11T02:35:29.954Z,37.53
2023-05-11T02:38:01.984Z,42.33
2023-05-11T02:40:36.292Z,50.35
2023-05-11T02:43:19.567Z,37.88
2023-05-11T02:45:59.672Z,46.88
2023-05-11T02:48:32.076Z,41.17
2023-05-11T02:51:02.939Z,43.80
2023-05-11T02:53:38.615Z,37.70
2023-05-11T02:56:07.254Z,35.35
2023-05-11T02:58:36.828Z,35.42
2023-05-11T03:01:27.381Z,32.55
2023-05-11T03:03:58.297Z,46.78
2023-05-11T03:06:31.414Z,40.75
2023-05-11T03:09:03.090Z,36.47
2023-05-11T03:11:33.907Z,46.43
2023-05-11T03:14:03.904Z,49.53
2023-05-11T03:16:32.932Z,41.50
2023-05-11T03:19:06.311Z,43.70
2023-05-11T03:21:36.617Z,43.50
2023-05-11T03:24:07.564Z,38.13
2023-05-11T03:26:37.001Z,37.30
2023-05-11T03:29:08.255Z,44.70
2023-05-11T03:31:36.632Z,42.58
2023-05-11T03:34:05.161Z,37.70
2023-05-11T03:36:40.353Z,52.80
2023-05-11T03:39:11.860Z,62.07
2023-05-11T03:41:41.116Z,58.77
2023-05-11T03:44:13.303Z,60.00
2023-05-11T03:49:14.314Z,58.65
2023-05-11T03:51:44.471Z,59.10
2023-05-11T03:54:13.159Z,65.85
2023-05-11T03:56:41.852Z,62.70
2023-05-11T03:59:15.035Z,84.97
2023-05-11T04:01:44.033Z,125.68
2023-05-11T04:04:12.411Z,101.57
2023-05-11T04:06:40.679Z,98.97
2023-05-11T04:09:15.398Z,75.68
2023-05-11T04:11:43.654Z,66.57
2023-05-11T04:14:11.832Z,60.45
2023-05-11T04:16:40.273Z,58.28
2023-05-11T04:19:08.498Z,57.75
2023-05-11T04:21:36.913Z,49.38
2023-05-11T04:24:05.598Z,56.72
2023-05-11T04:26:33.739Z,50.45
2023-05-11T04:29:02.025Z,50.33
2023-05-11T04:31:30.210Z,56.97
2023-05-11T04:33:59.027Z,51.08
2023-05-11T04:36:27.985Z,59.83
2023-05-11T04:38:56.247Z,59.13
2023-05-11T04:41:24.561Z,52.60
2023-05-11T04:43:54.070Z,48.92
2023-05-11T04:46:22.419Z,55.15
2023-05-11T04:48:50.908Z,58.58
2023-05-11T04:51:19.325Z,51.17
2023-05-11T04:53:47.624Z,56.58
2023-05-11T04:56:15.910Z,59.13
2023-05-11T04:58:44.121Z,44.17
2023-05-11T05:01:12.627Z,46.92
2023-05-11T05:03:40.946Z,52.35
2023-05-11T05:06:09.800Z,42.03
2023-05-11T05:08:38.250Z,44.42
2023-05-11T05:11:06.855Z,40.25
2023-05-11T05:13:35.276Z,43.00
2023-05-11T05:16:03.557Z,47.10
2023-05-11T05:18:31.785Z,46.30
2023-05-11T05:21:00.499Z,42.20
2023-05-11T05:23:28.795Z,38.25
2023-05-11T05:25:56.979Z,28.67
2023-05-11T05:28:25.220Z,51.05
2023-05-11T05:30:53.633Z,50.25
2023-05-11T05:33:22.667Z,53.78
2023-05-11T05:35:50.979Z,59.63
2023-05-11T05:38:19.086Z,46.15
2023-05-11T05:40:47.895Z,52.97
2023-05-11T05:43:17.021Z,58.05
2023-05-11T05:45:45.198Z,54.30
2023-05-11T05:48:13.808Z,58.70
2023-05-11T05:50:41.975Z,58.00
2023-05-11T05:53:10.433Z,58.15
2023-05-11T05:55:38.923Z,59.92
2023-05-11T05:58:07.170Z,58.42
2023-05-11T06:00:36.695Z,49.58
2023-05-11T06:03:09.245Z,45.30
2023-05-11T06:05:37.912Z,37.25
2023-05-11T06:08:10.585Z,42.15
2023-05-11T06:10:40.749Z,45.83
2023-05-11T06:13:10.703Z,39.38
2023-05-11T06:15:43.329Z,45.58
2023-05-11T06:18:25.911Z,44.67
2023-05-11T06:20:54.548Z,37.63
2023-05-11T06:23:23.738Z,37.40
2023-05-11T06:25:52.103Z,34.05
2023-05-11T06:28:21.245Z,34.95
2023-05-11T06:30:49.596Z,34.42
2023-05-11T06:33:18.127Z,37.42
2023-05-11T06:35:46.948Z,34.38
2023-05-11T06:38:16.163Z,38.50
2023-05-11T06:40:44.367Z,30.05
2023-05-11T06:43:12.798Z,30.30
2023-05-11T06:45:49.418Z,28.95
2023-05-11T06:48:18.540Z,34.35
2023-05-11T06:50:46.665Z,31.60
2023-05-11T06:53:15.067Z,24.15
2023-05-11T06:55:43.192Z,23.58
2023-05-11T06:58:11.378Z,37.30
2023-05-11T07:00:39.997Z,33.83
2023-05-11T07:03:08.324Z,37.95
2023-05-11T07:05:37.276Z,32.00
2023-05-11T07:08:05.872Z,33.75
2023-05-11T07:10:34.341Z,34.53
2023-05-11T07:13:03.479Z,36.42
2023-05-11T07:15:32.511Z,39.15
2023-05-11T07:18:01.445Z,35.28
2023-05-11T07:20:29.898Z,42.78
2023-05-11T07:22:59.640Z,43.92
2023-05-11T07:25:28.068Z,33.78
2023-05-11T07:27:56.853Z,49.35
2023-05-11T07:30:25.751Z,32.25
2023-05-11T07:32:54.166Z,41.50
2023-05-11T07:35:24.016Z,29.70
2023-05-11T07:37:52.627Z,38.92
2023-05-11T07:40:21.738Z,35.30
2023-05-11T07:42:50.319Z,34.42
2023-05-11T07:45:19.276Z,29.88
2023-05-11T07:47:48.107Z,32.25
2023-05-11T07:50:17.242Z,24.40
2023-05-11T07:52:46.508Z,22.17
2023-05-11T07:55:15.257Z,25.95
2023-05-11T07:57:43.414Z,23.45
2023-05-11T08:00:12.804Z,31.48
2023-05-11T08:02:41.186Z,31.88
2023-05-11T08:05:09.760Z,32.17
2023-05-11T08:07:39.618Z,33.97
2023-05-11T08:10:10.007Z,29.67
2023-05-11T08:12:38.684Z,29.75
2023-05-11T08:15:07.517Z,27.05
2023-05-11T08:17:35.814Z,30.13
2023-05-11T08:20:05.613Z,30.48
2023-05-11T08:22:33.766Z,22.25
2023-05-11T08:25:02.125Z,27.67
2023-05-11T08:27:30.191Z,24.83
2023-05-11T08:29:58.777Z,29.77
2023-05-11T08:32:27.148Z,26.48
2023-05-11T08:34:55.738Z,24.65
2023-05-11T08:37:25.909Z,53.15
2023-05-11T08:39:54.129Z,39.17
2023-05-11T08:42:28.501Z,119.20
2023-05-11T08:44:57.457Z,71.30
2023-05-11T08:47:25.856Z,37.58
2023-05-11T08:49:54.676Z,35.58
2023-05-11T08:52:22.980Z,85.00
2023-05-11T08:54:51.464Z,46.22
2023-05-11T08:57:20.558Z,41.75
2023-05-11T08:59:49.927Z,38.72
2023-05-11T09:02:19.834Z,40.83
2023-05-11T09:04:50.272Z,40.05
2023-05-11T09:07:20.136Z,39.15
2023-05-11T09:09:48.443Z,43.42
2023-05-11T09:12:17.765Z,47.42
2023-05-11T09:14:46.399Z,42.50
2023-05-11T09:17:14.944Z,34.65
2023-05-11T09:20:00.270Z,36.08
2023-05-11T09:22:31.464Z,41.67
2023-05-11T09:25:03.092Z,31.70
2023-05-11T09:27:31.454Z,34.60
2023-05-11T09:30:31.180Z,31.20
2023-05-11T09:33:02.966Z,33.65
2023-05-11T09:35:33.164Z,32.30
2023-05-11T09:38:07.428Z,31.40
2023-05-11T09:40:40.165Z,26.88
2023-05-11T09:43:28.960Z,26.00
2023-05-11T09:45:59.149Z,29.38
2023-05-11T09:48:30.775Z,27.08
2023-05-11T09:51:07.689Z,29.65
2023-05-11T09:53:43.451Z,42.20
2023-05-11T09:56:13.144Z,34.80
2023-05-11T09:58:47.155Z,33.55
2023-05-11T10:01:16.894Z,45.65
2023-05-11T10:03:49.425Z,55.17
2023-05-11T10:06:20.075Z,48.60
2023-05-11T10:08:49.001Z,46.35
2023-05-11T10:11:17.278Z,34.45
2023-05-11T10:13:45.675Z,26.67
2023-05-11T10:16:16.723Z,29.85
2023-05-11T10:18:46.288Z,38.83
2023-05-11T10:21:17.158Z,41.00
2023-05-11T10:23:45.687Z,44.58
2023-05-11T10:26:14.682Z,35.55
2023-05-11T10:28:43.316Z,39.38
2023-05-11T10:31:12.261Z,42.13
2023-05-11T10:33:42.313Z,33.97
2023-05-11T10:36:12.003Z,60.38
2023-05-11T10:38:40.424Z,52.95
2023-05-11T10:41:26.437Z,27.77
2023-05-11T10:44:31.446Z,27.65
2023-05-11T10:47:09.015Z,46.72
2023-05-11T10:50:13.826Z,27.13
2023-05-11T10:53:10.160Z,52.45
2023-05-11T10:55:38.523Z,21.58
2023-05-11T10:58:08.275Z,39.47
2023-05-11T11:01:15.352Z,43.83
2023-05-11T11:03:55.777Z,30.25
2023-05-11T11:06:24.622Z,24.00
2023-05-11T11:09:04.640Z,20.50
2023-05-11T11:11:48.669Z,20.92
2023-05-11T11:14:17.959Z,19.83
2023-05-11T11:17:12.421Z,31.15
2023-05-11T11:19:40.653Z,20.60
2023-05-11T11:22:37.476Z,18.23
2023-05-11T11:25:07.937Z,28.85
2023-05-11T11:27:42.357Z,24.52
2023-05-11T11:30:29.232Z,22.63
2023-05-11T11:33:17.364Z,26.30
2023-05-11T11:35:46.485Z,36.08
2023-05-11T11:38:20.157Z,18.10
2023-05-11T11:40:51.834Z,24.08
2023-05-11T11:43:29.418Z,24.08
2023-05-11T11:46:02.706Z,23.83
2023-05-11T11:48:40.961Z,21.58
2023-05-11T11:51:12.713Z,22.85
2023-05-11T11:53:41.034Z,32.60
2023-05-11T11:56:29.136Z,25.80
2023-05-11T11:58:57.955Z,23.55
2023-05-11T12:01:31.170Z,25.30
2023-05-11T12:04:05.941Z,21.88
2023-05-11T12:06:41.882Z,26.70
2023-05-11T12:09:10.394Z,21.73
2023-05-11T12:11:40.080Z,20.15
2023-05-11T12:14:11.374Z,27.92
2023-05-11T12:16:39.781Z,35.25
2023-05-11T12:19:08.100Z,17.50
2023-05-11T12:21:36.342Z,21.75
2023-05-11T12:24:06.183Z,23.27
2023-05-11T12:26:35.872Z,30.05
2023-05-11T12:29:14.980Z,13.70
2023-05-11T12:31:45.796Z,16.55
2023-05-11T12:34:22.056Z,27.33
2023-05-11T12:36:52.802Z,15.52
2023-05-11T12:39:23.148Z,15.63
2023-05-11T12:41:53.638Z,20.98
2023-05-11T12:44:23.810Z,24.40
2023-05-11T12:46:56.012Z,16.42
2023-05-11T12:49:26.919Z,13.63
2023-05-11T12:52:08.302Z,28.77
2023-05-11T12:54:38.487Z,36.72
2023-05-11T12:57:26.874Z,19.20
2023-05-11T13:00:14.839Z,17.80
2023-05-11T13:02:48.194Z,24.55
2023-05-11T13:05:17.439Z,18.02
2023-05-11T13:07:46.187Z,20.00
2023-05-11T13:10:14.552Z,31.05
2023-05-11T13:12:53.330Z,19.02
2023-05-11T13:15:23.181Z,28.30
2023-05-11T13:18:02.581Z,31.83
2023-05-11T13:20:35.105Z,22.42
2023-05-11T13:23:08.736Z,40.15
2023-05-11T13:25:53.754Z,24.95
2023-05-11T13:28:24.486Z,17.52
2023-05-11T13:31:00.036Z,18.77
2023-05-11T13:33:28.845Z,18.77
2023-05-11T13:35:57.052Z,30.60
2023-05-11T13:38:25.234Z,32.92
2023-05-11T13:40:53.523Z,31.90
2023-05-11T13:43:21.708Z,27.88
2023-05-11T13:45:50.377Z,14.38
2023-05-11T13:48:19.621Z,21.38
2023-05-11T13:50:47.878Z,22.10
2023-05-11T13:53:16.076Z,26.88
2023-05-11T13:55:44.293Z,15.35
2023-05-11T13:58:12.615Z,16.70
2023-05-11T14:00:40.754Z,28.48
2023-05-11T14:03:09.052Z,34.15
2023-05-11T14:05:39.212Z,22.05
2023-05-11T14:08:07.841Z,24.38
2023-05-11T14:10:36.082Z,22.90
2023-05-11T14:13:04.273Z,19.73
2023-05-11T14:15:35.513Z,16.38
2023-05-11T14:18:04.070Z,46.57
2023-05-11T14:20:32.736Z,24.27
2023-05-11T14:23:01.003Z,19.50
2023-05-11T14:25:29.227Z,15.02
2023-05-11T14:28:01.583Z,32.30
2023-05-11T14:30:29.776Z,22.15
2023-05-11T14:32:58.064Z,20.52
2023-05-11T14:35:26.357Z,23.40
2023-05-11T14:37:54.630Z,30.67
2023-05-11T14:40:22.972Z,23.70
2023-05-11T14:42:51.079Z,30.30
2023-05-11T14:45:20.851Z,38.58
2023-05-11T14:47:49.450Z,21.30
2023-05-11T14:50:17.696Z,26.42
2023-05-11T14:52:46.143Z,26.25
2023-05-11T14:55:14.354Z,22.13
2023-05-11T14:57:43.347Z,23.77
2023-05-11T15:00:12.541Z,31.25
2023-05-11T15:02:40.763Z,16.63
2023-05-11T15:05:09.601Z,22.95
2023-05-11T15:07:38.824Z,22.13
2023-05-11T15:10:08.362Z,21.27
2023-05-11T15:12:36.712Z,30.70
2023-05-11T15:15:05.260Z,32.80
2023-05-11T15:17:33.652Z,29.05
2023-05-11T15:20:02.265Z,42.97
2023-05-11T15:22:30.474Z,27.20
2023-05-11T15:24:58.645Z,38.80
2023-05-11T15:27:27.994Z,26.15
2023-05-11T15:29:56.182Z,31.73
2023-05-11T15:32:24.278Z,24.85
2023-05-11T15:34:59.442Z,24.17
2023-05-11T15:37:28.746Z,13.77
2023-05-11T15:39:57.017Z,20.58
2023-05-11T15:42:25.390Z,19.55
2023-05-11T15:44:56.376Z,84.23
2023-05-11T15:47:25.201Z,43.40
2023-05-11T15:49:53.438Z,29.42
2023-05-11T15:52:21.700Z,26.05
2023-05-11T15:54:50.046Z,19.02
2023-05-11T15:57:18.276Z,31.70
2023-05-11T15:59:47.238Z,22.23
2023-05-11T16:02:15.622Z,20.15
2023-05-11T16:04:43.865Z,14.88
2023-05-11T16:07:12.059Z,14.15
2023-05-11T16:09:40.375Z,17.30
2023-05-11T16:12:08.706Z,28.73
2023-05-11T16:14:36.794Z,36.72
2023-05-11T16:17:05.276Z,29.33
2023-05-11T16:19:33.597Z,20.77
2023-05-11T16:22:03.396Z,25.85
2023-05-11T16:24:34.072Z,18.10
2023-05-11T16:27:02.883Z,19.92
2023-05-11T16:29:37.190Z,18.90
2023-05-11T16:32:05.621Z,16.00
2023-05-11T16:34:33.896Z,18.40
2023-05-11T16:37:02.145Z,24.48
2023-05-11T16:39:30.289Z,13.98
2023-05-11T16:41:58.499Z,21.73
2023-05-11T16:44:26.743Z,19.27
2023-05-11T16:46:55.515Z,24.48
2023-05-11T16:49:24.486Z,35.63
2023-05-11T16:51:52.767Z,27.73
2023-05-11T16:54:21.418Z,12.23
2023-05-11T16:56:49.861Z,19.65
2023-05-11T16:59:18.034Z,16.27
2023-05-11T17:01:46.684Z,20.00
2023-05-11T17:04:15.134Z,20.48
2023-05-11T17:06:43.662Z,23.27
2023-05-11T17:09:11.930Z,22.05
2023-05-11T17:11:40.195Z,14.20
2023-05-11T17:14:08.471Z,28.95
2023-05-11T17:16:37.909Z,41.53
2023-05-11T17:19:06.083Z,25.77
2023-05-11T17:21:34.421Z,24.00
2023-05-11T17:24:02.627Z,30.90
2023-05-11T17:26:39.619Z,27.13
2023-05-11T17:29:16.178Z,35.28
2023-05-11T17:31:44.726Z,24.05
2023-05-11T17:34:13.098Z,33.50
2023-05-11T17:36:41.553Z,33.83
2023-05-11T17:39:10.231Z,21.20
2023-05-11T17:41:38.796Z,40.80
2023-05-11T17:44:07.240Z,29.50
2023-05-11T17:46:35.878Z,32.42
2023-05-11T17:49:04.210Z,34.60
2023-05-11T17:51:32.557Z,30.27
2023-05-11T17:54:00.744Z,42.33
2023-05-11T17:56:28.968Z,31.20
2023-05-11T17:58:57.157Z,40.55
2023-05-11T18:01:25.686Z,27.70
2023-05-11T18:03:54.288Z,39.88
2023-05-11T18:06:22.713Z,33.47
2023-05-11T18:08:50.906Z,27.80
2023-05-11T18:11:19.216Z,44.83
2023-05-11T18:13:48.087Z,40.80
2023-05-11T18:16:17.452Z,39.30
2023-05-11T18:18:45.846Z,41.63
2023-05-11T18:21:14.292Z,34.00
2023-05-11T18:23:42.522Z,33.47
2023-05-11T18:26:13.109Z,27.98
2023-05-11T18:28:41.322Z,47.35
2023-05-11T18:31:09.655Z,45.72
2023-05-11T18:33:37.883Z,67.80
2023-05-11T18:36:06.762Z,62.92
2023-05-11T18:38:35.089Z,51.05
2023-05-11T18:41:08.214Z,39.83
2023-05-11T18:43:36.440Z,43.55
2023-05-11T18:46:09.069Z,56.35
2023-05-11T18:48:37.862Z,43.40
2023-05-11T18:51:06.551Z,46.40
2023-05-11T18:53:35.124Z,32.30
2023-05-11T18:56:03.357Z,38.92
2023-05-11T18:58:31.686Z,64.35
2023-05-11T19:00:59.881Z,55.97
2023-05-11T19:03:28.427Z,51.08
2023-05-11T19:05:56.951Z,45.50
2023-05-11T19:08:25.237Z,45.88
2023-05-11T19:10:53.390Z,49.95
2023-05-11T19:13:21.647Z,43.45
2023-05-11T19:15:49.975Z,48.83
2023-05-11T19:18:18.409Z,35.42
2023-05-11T19:20:46.845Z,37.05
2023-05-11T19:23:15.006Z,40.03
2023-05-11T19:25:43.301Z,31.67
2023-05-11T19:28:11.631Z,58.17
2023-05-11T19:30:39.769Z,57.63
2023-05-11T19:33:08.202Z,64.47
2023-05-11T19:35:36.467Z,51.30
2023-05-11T19:38:04.896Z,51.80
2023-05-11T19:43:05.140Z,48.00
2023-05-11T19:45:33.362Z,55.97
2023-05-11T19:48:01.885Z,42.90
2023-05-11T19:50:30.246Z,29.58
2023-05-11T19:52:58.539Z,31.33
2023-05-11T19:55:27.044Z,31.65
2023-05-11T19:57:55.459Z,41.60
2023-05-11T20:00:23.643Z,94.20
2023-05-11T20:02:52.848Z,89.20
2023-05-11T20:05:21.460Z,65.95
2023-05-11T20:07:49.860Z,55.45
2023-05-11T20:10:18.217Z,61.45
2023-05-11T20:12:46.878Z,65.32
2023-05-11T20:15:15.232Z,68.07
2023-05-11T20:17:43.834Z,62.58
2023-05-11T20:20:15.359Z,67.35
2023-05-11T20:22:43.642Z,45.10
2023-05-11T20:25:17.902Z,40.40
2023-05-11T20:27:47.395Z,46.60
2023-05-11T20:30:16.364Z,94.47
2023-05-11T20:35:15.978Z,58.73
2023-05-11T20:37:44.255Z,54.05
2023-05-11T20:40:13.153Z,47.78
2023-05-11T20:42:41.337Z,37.03
2023-05-11T20:45:09.934Z,60.22
2023-05-11T20:47:38.279Z,52.35
2023-05-11T20:50:07.499Z,40.58
2023-05-11T20:52:35.833Z,34.22
2023-05-11T20:55:03.983Z,39.65
2023-05-11T20:57:32.157Z,47.55
2023-05-11T21:02:31.436Z,41.30
2023-05-11T21:04:59.838Z,35.17
2023-05-11T21:07:28.899Z,47.15
2023-05-11T21:09:57.211Z,90.30
2023-05-11T21:12:26.027Z,114.88
2023-05-11T21:14:56.218Z,46.20
2023-05-11T21:17:25.320Z,43.47
2023-05-11T21:19:53.901Z,58.20
2023-05-11T21:22:22.232Z,50.58
2023-05-11T21:24:50.396Z,52.92
2023-05-11T21:27:18.673Z,54.78
2023-05-11T21:29:47.125Z,44.95
2023-05-11T21:32:15.367Z,35.50
2023-05-11T21:34:43.974Z,28.00
2023-05-11T21:37:12.209Z,37.97
2023-05-11T21:39:40.856Z,34.45
2023-05-11T21:42:09.155Z,32.95
2023-05-11T21:44:37.494Z,37.00
2023-05-11T21:47:06.291Z,39.00
2023-05-11T21:49:35.152Z,23.77
2023-05-11T21:52:03.686Z,31.73
2023-05-11T21:54:31.967Z,50.40
2023-05-11T21:57:00.257Z,41.55
2023-05-11T21:59:28.708Z,39.88
2023-05-11T22:01:57.131Z,23.88
2023-05-11T22:04:25.485Z,21.08
2023-05-11T22:06:55.550Z,32.20
2023-05-11T22:09:23.882Z,41.58
2023-05-11T22:11:52.089Z,36.45
2023-05-11T22:14:20.803Z,43.75
2023-05-11T22:16:48.957Z,26.70
2023-05-11T22:19:17.989Z,37.72
2023-05-11T22:21:46.071Z,46.95
2023-05-11T22:24:14.321Z,56.38
2023-05-11T22:26:42.669Z,47.72
2023-05-11T22:29:10.842Z,46.05
2023-05-11T22:31:39.176Z,50.83
2023-05-11T22:34:07.445Z,50.00
2023-05-11T22:36:35.944Z,42.63
2023-05-11T22:39:04.500Z,36.50
2023-05-11T22:41:32.840Z,35.72
2023-05-11T22:44:01.191Z,33.75
2023-05-11T22:46:29.558Z,40.13
2023-05-11T22:49:13.217Z,49.17
2023-05-11T22:51:41.526Z,35.90
2023-05-11T22:54:09.978Z,32.13
2023-05-11T22:56:38.872Z,24.80
2023-05-11T22:59:07.220Z,24.55
2023-05-11T23:01:35.546Z,21.85
2023-05-11T23:04:04.029Z,26.00
2023-05-11T23:06:32.318Z,37.90
2023-05-11T23:09:00.609Z,24.77
2023-05-11T23:11:29.089Z,20.20
2023-05-11T23:13:57.453Z,19.55
2023-05-11T23:16:25.685Z,37.75
2023-05-11T23:18:54.093Z,39.15
2023-05-11T23:21:22.412Z,33.55
2023-05-11T23:23:50.933Z,29.67
2023-05-11T23:26:19.008Z,36.72
2023-05-11T23:28:47.353Z,41.88
2023-05-11T23:31:15.596Z,36.45
2023-05-11T23:33:43.964Z,31.30
2023-05-11T23:36:12.076Z,36.88
2023-05-11T23:38:40.278Z,34.75
2023-05-11T23:41:08.637Z,40.47
2023-05-11T23:43:39.932Z,23.83
2023-05-11T23:46:08.466Z,24.33
2023-05-11T23:48:36.695Z,32.22
2023-05-11T23:51:05.060Z,32.95
2023-05-11T23:53:33.285Z,29.58
2023-05-11T23:56:01.736Z,27.63
2023-05-11T23:58:30.038Z,29.55
